sensor_id;sensor_type;location;lat;lon;timestamp;pressure;altitude;pressure_sealevel;temperature;humidity
10897;BME280;5501;51.176;6.470;2022-09-06T00:02:45;101098.13;;;23.42;51.43
10897;BME280;5501;51.176;6.470;2022-09-06T00:07:47;101119.34;;;23.48;52.78
10897;BME280;5501;51.176;6.470;2022-09-06T00:12:48;101131.16;;;23.11;57.53
10897;BME280;5501;51.176;6.470;2022-09-06T00:17:50;101125.38;;;22.79;64.27
10897;BME280;5501;51.176;6.470;2022-09-06T00:23:03;101111.16;;;21.99;70.89
10897;BME280;5501;51.176;6.470;2022-09-06T00:28:04;101112.53;;;21.66;75.28
10897;BME280;5501;51.176;6.470;2022-09-06T00:33:06;101113.91;;;21.73;76.23
10897;BME280;5501;51.176;6.470;2022-09-06T00:38:08;101119.75;;;21.53;79.38
10897;BME280;5501;51.176;6.470;2022-09-06T00:43:09;101108.78;;;21.42;80.50
10897;BME280;5501;51.176;6.470;2022-09-06T00:48:11;101113.31;;;21.41;78.29
10897;BME280;5501;51.176;6.470;2022-09-06T00:53:13;101119.00;;;21.51;78.53
10897;BME280;5501;51.176;6.470;2022-09-06T00:58:14;101122.38;;;21.54;77.33
10897;BME280;5501;51.176;6.470;2022-09-06T01:03:16;101128.66;;;21.55;80.12
10897;BME280;5501;51.176;6.470;2022-09-06T01:29:50;101105.56;;;21.23;85.17
10897;BME280;5501;51.176;6.470;2022-09-06T01:35:02;101105.84;;;21.18;83.14
10897;BME280;5501;51.176;6.470;2022-09-06T01:40:06;101104.22;;;20.88;82.65
10897;BME280;5501;51.176;6.470;2022-09-06T01:45:11;101103.03;;;21.20;83.94
10897;BME280;5501;51.176;6.470;2022-09-06T01:55:36;101066.88;;;21.21;84.19
10897;BME280;5501;51.176;6.470;2022-09-06T02:05:57;101053.06;;;21.25;85.25
10897;BME280;5501;51.176;6.470;2022-09-06T02:11:02;101051.28;;;21.12;87.30
10897;BME280;5501;51.176;6.470;2022-09-06T02:16:06;101057.66;;;21.11;89.66
10897;BME280;5501;51.176;6.470;2022-09-06T02:21:12;101046.69;;;20.86;91.67
10897;BME280;5501;51.176;6.470;2022-09-06T02:26:17;101050.13;;;20.88;91.62
10897;BME280;5501;51.176;6.470;2022-09-06T02:31:29;101054.41;;;20.92;90.16
10897;BME280;5501;51.176;6.470;2022-09-06T02:36:34;101048.44;;;20.73;91.08
10897;BME280;5501;51.176;6.470;2022-09-06T02:41:39;101025.06;;;20.72;91.72
10897;BME280;5501;51.176;6.470;2022-09-06T02:46:41;101011.91;;;20.80;90.79
10897;BME280;5501;51.176;6.470;2022-09-06T02:51:42;100999.22;;;20.54;92.54
10897;BME280;5501;51.176;6.470;2022-09-06T02:56:44;100981.81;;;20.72;94.05
10897;BME280;5501;51.176;6.470;2022-09-06T03:01:52;100987.19;;;20.86;92.79
10897;BME280;5501;51.176;6.470;2022-09-06T03:06:54;100997.63;;;20.78;92.38
10897;BME280;5501;51.176;6.470;2022-09-06T03:11:56;101010.19;;;20.79;92.63
10897;BME280;5501;51.176;6.470;2022-09-06T03:16:58;100990.97;;;20.69;92.70
10897;BME280;5501;51.176;6.470;2022-09-06T03:21:59;100994.22;;;20.88;93.42
10897;BME280;5501;51.176;6.470;2022-09-06T03:27:01;100997.28;;;20.70;93.25
10897;BME280;5501;51.176;6.470;2022-09-06T03:32:03;101000.34;;;20.64;93.34
10897;BME280;5501;51.176;6.470;2022-09-06T03:37:04;100998.81;;;20.74;94.18
10897;BME280;5501;51.176;6.470;2022-09-06T03:42:06;100993.69;;;20.69;93.97
10897;BME280;5501;51.176;6.470;2022-09-06T03:47:08;100995.25;;;20.59;93.97
10897;BME280;5501;51.176;6.470;2022-09-06T03:52:10;101004.75;;;20.38;95.80
10897;BME280;5501;51.176;6.470;2022-09-06T03:57:12;101013.50;;;20.42;95.30
10897;BME280;5501;51.176;6.470;2022-09-06T04:02:14;101015.03;;;20.32;95.23
10897;BME280;5501;51.176;6.470;2022-09-06T04:07:16;101025.47;;;20.38;96.92
10897;BME280;5501;51.176;6.470;2022-09-06T04:12:17;101019.28;;;20.36;96.84
10897;BME280;5501;51.176;6.470;2022-09-06T04:17:19;101013.88;;;20.36;95.88
10897;BME280;5501;51.176;6.470;2022-09-06T04:22:20;101016.81;;;20.33;95.80
10897;BME280;5501;51.176;6.470;2022-09-06T04:27:22;101013.22;;;20.18;96.03
10897;BME280;5501;51.176;6.470;2022-09-06T04:32:24;101006.38;;;20.13;96.45
10897;BME280;5501;51.176;6.470;2022-09-06T04:37:26;101003.00;;;20.23;94.75
10897;BME280;5501;51.176;6.470;2022-09-06T04:42:28;100986.88;;;20.08;94.37
10897;BME280;5501;51.176;6.470;2022-09-06T04:47:30;100996.56;;;19.96;95.11
10897;BME280;5501;51.176;6.470;2022-09-06T04:52:32;100997.53;;;19.81;96.59
10897;BME280;5501;51.176;6.470;2022-09-06T04:57:33;101008.06;;;20.00;95.75
10897;BME280;5501;51.176;6.470;2022-09-06T05:02:35;101009.31;;;19.94;95.04
10897;BME280;5501;51.176;6.470;2022-09-06T05:07:36;101018.06;;;19.83;95.66
10897;BME280;5501;51.176;6.470;2022-09-06T05:12:38;101023.06;;;19.75;95.49
10897;BME280;5501;51.176;6.470;2022-09-06T05:17:44;101025.06;;;19.72;96.48
10897;BME280;5501;51.176;6.470;2022-09-06T05:22:52;101029.22;;;19.77;94.96
10897;BME280;5501;51.176;6.470;2022-09-06T05:27:56;101028.06;;;19.67;96.15
10897;BME280;5501;51.176;6.470;2022-09-06T05:32:58;101021.53;;;19.71;95.96
10897;BME280;5501;51.176;6.470;2022-09-06T05:37:59;101016.53;;;19.79;95.37
10897;BME280;5501;51.176;6.470;2022-09-06T05:43:01;101017.84;;;19.72;96.23
10897;BME280;5501;51.176;6.470;2022-09-06T05:48:03;101032.72;;;19.79;96.18
10897;BME280;5501;51.176;6.470;2022-09-06T05:53:05;101032.16;;;19.88;95.52
10897;BME280;5501;51.176;6.470;2022-09-06T05:58:06;101024.47;;;19.97;94.92
10897;BME280;5501;51.176;6.470;2022-09-06T06:03:08;101029.47;;;20.02;94.76
10897;BME280;5501;51.176;6.470;2022-09-06T06:08:10;101025.22;;;19.98;95.20
10897;BME280;5501;51.176;6.470;2022-09-06T06:13:11;101027.56;;;20.05;95.50
10897;BME280;5501;51.176;6.470;2022-09-06T06:18:13;101027.97;;;20.13;94.79
10897;BME280;5501;51.176;6.470;2022-09-06T06:23:14;101022.19;;;20.19;93.77
10897;BME280;5501;51.176;6.470;2022-09-06T06:28:16;101016.59;;;20.22;93.79
10897;BME280;5501;51.176;6.470;2022-09-06T06:33:17;101019.97;;;20.25;93.23
10897;BME280;5501;51.176;6.470;2022-09-06T06:38:19;101012.94;;;20.37;93.21
10897;BME280;5501;51.176;6.470;2022-09-06T06:43:21;101005.13;;;20.46;92.20
10897;BME280;5501;51.176;6.470;2022-09-06T06:48:23;101002.91;;;20.53;92.01
10897;BME280;5501;51.176;6.470;2022-09-06T06:53:24;100997.22;;;20.84;90.05
10897;BME280;5501;51.176;6.470;2022-09-06T06:58:26;101016.56;;;20.92;89.59
10897;BME280;5501;51.176;6.470;2022-09-06T07:03:28;101012.47;;;20.99;89.53
10897;BME280;5501;51.176;6.470;2022-09-06T07:08:30;101008.88;;;21.12;89.05
10897;BME280;5501;51.176;6.470;2022-09-06T07:13:32;101008.06;;;21.37;88.04
10897;BME280;5501;51.176;6.470;2022-09-06T07:18:37;101010.28;;;21.44;86.70
10897;BME280;5501;51.176;6.470;2022-09-06T07:23:43;101005.53;;;21.48;86.82
10897;BME280;5501;51.176;6.470;2022-09-06T07:29:05;101016.84;;;21.67;85.07
10897;BME280;5501;51.176;6.470;2022-09-06T07:34:07;101006.72;;;21.83;84.76
10897;BME280;5501;51.176;6.470;2022-09-06T07:39:09;101003.56;;;21.89;84.78
10897;BME280;5501;51.176;6.470;2022-09-06T07:44:11;101007.16;;;22.02;83.13
10897;BME280;5501;51.176;6.470;2022-09-06T07:49:12;101014.09;;;22.18;81.61
10897;BME280;5501;51.176;6.470;2022-09-06T07:54:14;101016.25;;;22.38;79.35
10897;BME280;5501;51.176;6.470;2022-09-06T07:59:32;101018.41;;;22.46;77.05
10897;BME280;5501;51.176;6.470;2022-09-06T08:04:33;101022.34;;;22.54;76.12
10897;BME280;5501;51.176;6.470;2022-09-06T08:09:35;101016.97;;;22.78;75.20
10897;BME280;5501;51.176;6.470;2022-09-06T08:14:37;101020.28;;;22.94;74.77
10897;BME280;5501;51.176;6.470;2022-09-06T08:19:38;101007.84;;;23.15;73.17
10897;BME280;5501;51.176;6.470;2022-09-06T08:24:40;101006.72;;;23.30;71.43
10897;BME280;5501;51.176;6.470;2022-09-06T08:29:41;101008.22;;;23.34;71.35
10897;BME280;5501;51.176;6.470;2022-09-06T08:34:43;101007.31;;;23.46;68.84
10897;BME280;5501;51.176;6.470;2022-09-06T08:39:44;101005.16;;;23.73;67.05
10897;BME280;5501;51.176;6.470;2022-09-06T08:44:49;101011.75;;;23.81;67.24
10897;BME280;5501;51.176;6.470;2022-09-06T08:49:59;100990.22;;;24.02;65.15
10897;BME280;5501;51.176;6.470;2022-09-06T09:00:25;100996.16;;;24.29;60.78
10897;BME280;5501;51.176;6.470;2022-09-06T09:05:29;100998.03;;;24.29;62.07
10897;BME280;5501;51.176;6.470;2022-09-06T09:11:01;100996.41;;;24.37;62.57
10897;BME280;5501;51.176;6.470;2022-09-06T09:16:01;100992.94;;;24.57;61.77
10897;BME280;5501;51.176;6.470;2022-09-06T09:21:03;100980.59;;;24.75;60.14
10897;BME280;5501;51.176;6.470;2022-09-06T09:26:09;100974.75;;;24.91;60.43
10897;BME280;5501;51.176;6.470;2022-09-06T09:31:12;100966.81;;;24.99;59.51
10897;BME280;5501;51.176;6.470;2022-09-06T09:36:19;100953.25;;;24.88;59.09
10897;BME280;5501;51.176;6.470;2022-09-06T09:41:30;100955.50;;;25.14;58.69
10897;BME280;5501;51.176;6.470;2022-09-06T09:46:34;100947.81;;;25.19;57.00
10897;BME280;5501;51.176;6.470;2022-09-06T09:51:41;100944.63;;;25.14;56.93
10897;BME280;5501;51.176;6.470;2022-09-06T09:56:47;100959.16;;;25.35;55.52
10897;BME280;5501;51.176;6.470;2022-09-06T10:01:53;100976.72;;;25.42;55.98
10897;BME280;5501;51.176;6.470;2022-09-06T10:07:12;100981.69;;;25.89;55.18
10897;BME280;5501;51.176;6.470;2022-09-06T10:12:17;100971.50;;;25.91;55.09
10897;BME280;5501;51.176;6.470;2022-09-06T10:17:30;100965.34;;;25.89;55.81
10897;BME280;5501;51.176;6.470;2022-09-06T10:28:06;100956.56;;;26.06;54.53
10897;BME280;5501;51.176;6.470;2022-09-06T10:38:38;100945.91;;;26.33;53.50
10897;BME280;5501;51.176;6.470;2022-09-06T10:43:56;100944.66;;;26.37;53.21
10897;BME280;5501;51.176;6.470;2022-09-06T10:49:01;100944.19;;;26.62;52.84
10897;BME280;5501;51.176;6.470;2022-09-06T10:54:11;100938.72;;;26.62;52.07
10897;BME280;5501;51.176;6.470;2022-09-06T10:59:24;100931.59;;;26.71;52.35
10897;BME280;5501;51.176;6.470;2022-09-06T11:04:36;100932.34;;;26.92;52.39
10897;BME280;5501;51.176;6.470;2022-09-06T11:10:08;100933.38;;;27.00;52.46
10897;BME280;5501;51.176;6.470;2022-09-06T11:15:14;100933.72;;;27.26;51.44
10897;BME280;5501;51.176;6.470;2022-09-06T11:25:54;100935.59;;;27.44;50.94
10897;BME280;5501;51.176;6.470;2022-09-06T11:31:01;100941.00;;;27.63;49.65
10897;BME280;5501;51.176;6.470;2022-09-06T11:41:40;100938.28;;;27.63;49.25
10897;BME280;5501;51.176;6.470;2022-09-06T11:51:44;100929.34;;;27.80;48.22
10897;BME280;5501;51.176;6.470;2022-09-06T11:56:57;100927.34;;;27.92;49.03
10897;BME280;5501;51.176;6.470;2022-09-06T12:02:05;100926.59;;;27.99;48.56
10897;BME280;5501;51.176;6.470;2022-09-06T12:07:11;100918.59;;;28.25;47.10
10897;BME280;5501;51.176;6.470;2022-09-06T12:12:45;100918.59;;;28.25;45.46
10897;BME280;5501;51.176;6.470;2022-09-06T12:17:48;100901.88;;;28.28;43.37
10897;BME280;5501;51.176;6.470;2022-09-06T12:22:51;100907.31;;;28.38;41.83
10897;BME280;5501;51.176;6.470;2022-09-06T12:27:57;100905.22;;;28.59;39.65
10897;BME280;5501;51.176;6.470;2022-09-06T12:33:04;100899.91;;;28.75;38.08
10897;BME280;5501;51.176;6.470;2022-09-06T12:38:11;100895.94;;;28.87;35.86
10897;BME280;5501;51.176;6.470;2022-09-06T12:43:15;100887.31;;;28.82;36.85
10897;BME280;5501;51.176;6.470;2022-09-06T12:48:31;100882.66;;;28.92;36.56
10897;BME280;5501;51.176;6.470;2022-09-06T12:53:34;100880.50;;;29.13;34.05
10897;BME280;5501;51.176;6.470;2022-09-06T12:58:35;100885.75;;;29.24;36.43
10897;BME280;5501;51.176;6.470;2022-09-06T13:03:43;100884.31;;;29.20;36.55
10897;BME280;5501;51.176;6.470;2022-09-06T13:08:51;100878.06;;;29.10;34.58
10897;BME280;5501;51.176;6.470;2022-09-06T13:13:54;100876.72;;;29.31;34.23
10897;BME280;5501;51.176;6.470;2022-09-06T13:19:51;100867.06;;;29.45;34.69
10897;BME280;5501;51.176;6.470;2022-09-06T13:29:35;100869.97;;;29.43;36.01
10897;BME280;5501;51.176;6.470;2022-09-06T13:34:37;100856.31;;;29.51;35.64
10897;BME280;5501;51.176;6.470;2022-09-06T13:39:49;100844.72;;;29.57;35.43
10897;BME280;5501;51.176;6.470;2022-09-06T13:44:51;100846.91;;;29.54;35.17
10897;BME280;5501;51.176;6.470;2022-09-06T13:49:53;100831.75;;;29.42;33.99
10897;BME280;5501;51.176;6.470;2022-09-06T13:54:55;100832.19;;;29.55;34.31
10897;BME280;5501;51.176;6.470;2022-09-06T13:59:56;100821.84;;;29.66;33.75
10897;BME280;5501;51.176;6.470;2022-09-06T14:04:58;100815.81;;;29.63;33.46
10897;BME280;5501;51.176;6.470;2022-09-06T14:09:59;100817.56;;;29.46;33.99
10897;BME280;5501;51.176;6.470;2022-09-06T14:15:01;100821.75;;;29.76;34.07
10897;BME280;5501;51.176;6.470;2022-09-06T14:20:03;100828.91;;;29.69;33.37
10897;BME280;5501;51.176;6.470;2022-09-06T14:25:05;100819.75;;;29.86;32.82
10897;BME280;5501;51.176;6.470;2022-09-06T14:30:07;100822.78;;;29.83;31.47
10897;BME280;5501;51.176;6.470;2022-09-06T14:35:09;100827.25;;;29.76;31.93
10897;BME280;5501;51.176;6.470;2022-09-06T14:40:11;100816.03;;;29.69;31.05
10897;BME280;5501;51.176;6.470;2022-09-06T14:45:13;100817.31;;;29.83;32.54
10897;BME280;5501;51.176;6.470;2022-09-06T14:50:15;100805.50;;;29.82;32.16
10897;BME280;5501;51.176;6.470;2022-09-06T14:55:17;100804.31;;;29.85;33.38
10897;BME280;5501;51.176;6.470;2022-09-06T15:00:19;100801.25;;;29.96;33.47
10897;BME280;5501;51.176;6.470;2022-09-06T15:05:20;100779.00;;;29.99;32.69
10897;BME280;5501;51.176;6.470;2022-09-06T15:10:22;100776.53;;;29.88;32.88
10897;BME280;5501;51.176;6.470;2022-09-06T15:15:24;100777.88;;;29.76;32.41
10897;BME280;5501;51.176;6.470;2022-09-06T15:20:26;100769.91;;;29.65;32.58
10897;BME280;5501;51.176;6.470;2022-09-06T15:25:27;100761.94;;;29.79;33.96
10897;BME280;5501;51.176;6.470;2022-09-06T15:30:29;100751.34;;;29.92;34.70
10897;BME280;5501;51.176;6.470;2022-09-06T15:35:30;100748.50;;;30.02;33.39
10897;BME280;5501;51.176;6.470;2022-09-06T15:40:33;100755.38;;;29.72;33.36
10897;BME280;5501;51.176;6.470;2022-09-06T15:45:46;100752.91;;;29.61;33.89
10897;BME280;5501;51.176;6.470;2022-09-06T15:50:48;100752.47;;;29.74;34.51
10897;BME280;5501;51.176;6.470;2022-09-06T15:55:57;100742.94;;;29.86;33.17
10897;BME280;5501;51.176;6.470;2022-09-06T16:06:12;100736.03;;;29.74;33.50
10897;BME280;5501;51.176;6.470;2022-09-06T16:11:23;100725.00;;;29.66;33.53
10897;BME280;5501;51.176;6.470;2022-09-06T16:16:24;100723.81;;;29.68;33.15
10897;BME280;5501;51.176;6.470;2022-09-06T16:21:29;100731.78;;;29.54;34.35
10897;BME280;5501;51.176;6.470;2022-09-06T16:26:34;100723.13;;;29.41;33.55
10897;BME280;5501;51.176;6.470;2022-09-06T16:31:37;100724.75;;;29.26;33.91
10897;BME280;5501;51.176;6.470;2022-09-06T16:36:41;100725.41;;;29.20;33.86
10897;BME280;5501;51.176;6.470;2022-09-06T16:41:44;100724.44;;;29.29;33.15
10897;BME280;5501;51.176;6.470;2022-09-06T16:46:48;100713.06;;;29.16;32.65
10897;BME280;5501;51.176;6.470;2022-09-06T16:51:50;100708.19;;;28.92;32.49
10897;BME280;5501;51.176;6.470;2022-09-06T16:56:52;100709.19;;;28.66;33.52
10897;BME280;5501;51.176;6.470;2022-09-06T17:01:54;100711.69;;;28.59;33.60
10897;BME280;5501;51.176;6.470;2022-09-06T17:06:56;100709.19;;;28.66;33.61
10897;BME280;5501;51.176;6.470;2022-09-06T17:11:58;100710.13;;;28.57;34.31
10897;BME280;5501;51.176;6.470;2022-09-06T17:17:00;100701.16;;;28.47;34.72
10897;BME280;5501;51.176;6.470;2022-09-06T17:22:09;100704.25;;;28.34;35.09
10897;BME280;5501;51.176;6.470;2022-09-06T17:27:11;100705.25;;;28.15;37.47
10897;BME280;5501;51.176;6.470;2022-09-06T17:32:13;100698.44;;;28.02;36.26
10897;BME280;5501;51.176;6.470;2022-09-06T17:37:15;100703.13;;;27.92;36.64
10897;BME280;5501;51.176;6.470;2022-09-06T17:42:17;100705.06;;;27.72;38.56
10897;BME280;5501;51.176;6.470;2022-09-06T17:47:19;100704.25;;;27.62;38.03
10897;BME280;5501;51.176;6.470;2022-09-06T17:52:20;100698.69;;;27.54;37.73
10897;BME280;5501;51.176;6.470;2022-09-06T17:57:22;100695.72;;;27.38;38.78
10897;BME280;5501;51.176;6.470;2022-09-06T18:02:24;100701.97;;;27.21;40.02
10897;BME280;5501;51.176;6.470;2022-09-06T18:07:25;100693.06;;;27.10;40.47
10897;BME280;5501;51.176;6.470;2022-09-06T18:12:27;100685.03;;;27.08;39.31
10897;BME280;5501;51.176;6.470;2022-09-06T18:17:29;100696.09;;;26.97;42.36
10897;BME280;5501;51.176;6.470;2022-09-06T18:22:31;100701.78;;;26.77;43.32
10897;BME280;5501;51.176;6.470;2022-09-06T18:27:33;100693.97;;;26.53;43.82
10897;BME280;5501;51.176;6.470;2022-09-06T18:32:35;100690.56;;;26.42;43.02
10897;BME280;5501;51.176;6.470;2022-09-06T18:37:37;100679.34;;;26.26;43.53
10897;BME280;5501;51.176;6.470;2022-09-06T18:42:42;100677.19;;;26.01;44.77
10897;BME280;5501;51.176;6.470;2022-09-06T18:47:45;100680.31;;;25.96;45.56
10897;BME280;5501;51.176;6.470;2022-09-06T18:52:47;100680.09;;;25.69;46.75
10897;BME280;5501;51.176;6.470;2022-09-06T18:57:49;100680.63;;;25.63;46.93
10897;BME280;5501;51.176;6.470;2022-09-06T19:02:51;100672.16;;;25.57;47.01
10897;BME280;5501;51.176;6.470;2022-09-06T19:07:52;100664.41;;;25.52;46.61
10897;BME280;5501;51.176;6.470;2022-09-06T19:12:54;100670.84;;;25.51;46.13
10897;BME280;5501;51.176;6.470;2022-09-06T19:17:57;100666.25;;;25.42;46.73
10897;BME280;5501;51.176;6.470;2022-09-06T19:22:59;100668.22;;;25.40;46.15
10897;BME280;5501;51.176;6.470;2022-09-06T19:28:01;100658.16;;;25.31;46.48
10897;BME280;5501;51.176;6.470;2022-09-06T19:33:02;100646.94;;;25.25;46.37
10897;BME280;5501;51.176;6.470;2022-09-06T19:38:04;100647.75;;;25.16;49.41
10897;BME280;5501;51.176;6.470;2022-09-06T19:43:06;100644.28;;;25.04;47.83
10897;BME280;5501;51.176;6.470;2022-09-06T19:48:08;100639.91;;;24.92;48.17
10897;BME280;5501;51.176;6.470;2022-09-06T19:53:10;100642.94;;;24.99;47.90
10897;BME280;5501;51.176;6.470;2022-09-06T19:58:12;100631.75;;;24.92;47.60
10897;BME280;5501;51.176;6.470;2022-09-06T20:03:14;100636.00;;;24.85;50.03
10897;BME280;5501;51.176;6.470;2022-09-06T20:08:15;100619.09;;;24.61;51.86
10897;BME280;5501;51.176;6.470;2022-09-06T20:13:18;100615.28;;;24.53;51.95
10897;BME280;5501;51.176;6.470;2022-09-06T20:18:20;100614.44;;;24.52;51.50
10897;BME280;5501;51.176;6.470;2022-09-06T20:23:21;100619.31;;;24.58;49.17
10897;BME280;5501;51.176;6.470;2022-09-06T20:28:23;100630.19;;;24.69;48.37
10897;BME280;5501;51.176;6.470;2022-09-06T20:33:25;100632.91;;;24.69;50.43
10897;BME280;5501;51.176;6.470;2022-09-06T20:38:30;100628.09;;;24.82;49.22
10897;BME280;5501;51.176;6.470;2022-09-06T20:43:34;100638.59;;;24.87;49.74
10897;BME280;5501;51.176;6.470;2022-09-06T20:48:37;100620.13;;;24.90;47.87
10897;BME280;5501;51.176;6.470;2022-09-06T20:53:46;100641.44;;;24.65;48.94
10897;BME280;5501;51.176;6.470;2022-09-06T20:58:57;100639.63;;;24.54;48.92
10897;BME280;5501;51.176;6.470;2022-09-06T21:04:02;100638.88;;;24.63;48.34
10897;BME280;5501;51.176;6.470;2022-09-06T21:09:07;100640.44;;;24.86;47.26
10897;BME280;5501;51.176;6.470;2022-09-06T21:14:09;100636.00;;;24.85;48.66
10897;BME280;5501;51.176;6.470;2022-09-06T21:19:12;100631.25;;;24.78;50.53
10897;BME280;5501;51.176;6.470;2022-09-06T21:24:14;100630.69;;;24.84;51.62
10897;BME280;5501;51.176;6.470;2022-09-06T21:29:15;100620.25;;;24.89;52.41
10897;BME280;5501;51.176;6.470;2022-09-06T21:34:17;100632.09;;;24.78;53.25
10897;BME280;5501;51.176;6.470;2022-09-06T21:39:18;100619.69;;;24.65;53.97
10897;BME280;5501;51.176;6.470;2022-09-06T21:44:20;100621.88;;;24.71;53.50
10897;BME280;5501;51.176;6.470;2022-09-06T21:49:22;100611.81;;;24.62;52.94
10897;BME280;5501;51.176;6.470;2022-09-06T21:54:24;100605.59;;;24.60;53.15
10897;BME280;5501;51.176;6.470;2022-09-06T21:59:25;100617.75;;;24.56;53.41
10897;BME280;5501;51.176;6.470;2022-09-06T22:04:27;100607.00;;;24.54;53.44
10897;BME280;5501;51.176;6.470;2022-09-06T22:09:29;100585.53;;;24.51;53.53
10897;BME280;5501;51.176;6.470;2022-09-06T22:14:31;100571.25;;;24.59;53.14
10897;BME280;5501;51.176;6.470;2022-09-06T22:19:32;100564.09;;;24.58;52.66
10897;BME280;5501;51.176;6.470;2022-09-06T22:24:34;100549.56;;;24.68;52.12
10897;BME280;5501;51.176;6.470;2022-09-06T22:29:36;100537.72;;;24.58;53.14
10897;BME280;5501;51.176;6.470;2022-09-06T22:34:37;100513.94;;;24.51;53.21
10897;BME280;5501;51.176;6.470;2022-09-06T22:39:39;100520.47;;;24.39;54.59
10897;BME280;5501;51.176;6.470;2022-09-06T22:44:42;100512.19;;;24.40;52.31
10897;BME280;5501;51.176;6.470;2022-09-06T22:49:44;100520.53;;;24.48;52.59
10897;BME280;5501;51.176;6.470;2022-09-06T22:54:46;100576.88;;;24.46;52.92
10897;BME280;5501;51.176;6.470;2022-09-06T22:59:48;100688.16;;;24.38;54.13
10897;BME280;5501;51.176;6.470;2022-09-06T23:04:50;100793.28;;;22.94;66.66
10897;BME280;5501;51.176;6.470;2022-09-06T23:09:51;100865.84;;;22.08;78.40
10897;BME280;5501;51.176;6.470;2022-09-06T23:28:26;100824.00;;;19.51;100.00
10897;BME280;5501;51.176;6.470;2022-09-06T23:33:28;100809.09;;;19.59;100.00
10897;BME280;5501;51.176;6.470;2022-09-06T23:38:35;100790.63;;;19.80;100.00
10897;BME280;5501;51.176;6.470;2022-09-06T23:43:38;100770.31;;;19.74;100.00
10897;BME280;5501;51.176;6.470;2022-09-06T23:48:41;100765.22;;;19.70;100.00
10897;BME280;5501;51.176;6.470;2022-09-06T23:53:44;100768.78;;;19.70;100.00
10897;BME280;5501;51.176;6.470;2022-09-06T23:58:46;100766.16;;;19.83;100.00
